Time;durP1;ratioP1;P1;durP2;ratioP2;P2;SDS_P1;SDS_P2;PMS_P1;PMS_P2;Temp;Humidity;BMP_temperature;BMP_pressure;BME280_temperature;BME280_humidity;BME280_pressure;Samples;Min_cycle;Max_cycle;Signal;HPM_P1;HPM_P2
2021/11/04 00:00:31;;;;;;;4.22;2.67;;;;;;;20.70;42.10;100316.94;5074691;28;20388;-59
2021/11/04 00:02:59;;;;;;;5.32;2.90;;;;;;;20.68;41.96;100320.72;5073584;28;20460;-58
2021/11/04 00:05:26;;;;;;;4.63;2.60;;;;;;;20.67;42.21;100316.44;5074842;28;20051;-59
2021/11/04 00:07:53;;;;;;;4.40;2.90;;;;;;;20.62;41.97;100311.56;5074560;28;20549;-59
2021/11/04 00:10:20;;;;;;;4.22;2.95;;;;;;;20.60;41.94;100308.22;5073600;28;20028;-59
2021/11/04 00:12:45;;;;;;;4.22;2.45;;;;;;;20.59;42.02;100303.94;5074737;28;20024;-59
2021/11/04 00:15:11;;;;;;;5.05;3.10;;;;;;;20.57;42.14;100300.59;5074196;28;20375;-59
2021/11/04 00:17:37;;;;;;;3.97;2.65;;;;;;;20.54;42.27;100301.75;5073654;28;20386;-59
2021/11/04 00:20:05;;;;;;;4.45;2.75;;;;;;;20.52;42.23;100302.88;5074183;28;20104;-59
2021/11/04 00:22:30;;;;;;;4.80;2.83;;;;;;;20.48;42.00;100299.69;5074246;28;20119;-59
2021/11/04 00:24:55;;;;;;;4.40;2.80;;;;;;;20.46;42.21;100294.56;5073494;28;20162;-58
2021/11/04 00:27:21;;;;;;;4.10;2.67;;;;;;;20.45;42.28;100289.41;5074398;28;20021;-59
2021/11/04 00:29:46;;;;;;;4.75;2.88;;;;;;;20.44;41.96;100293.91;5074308;28;20465;-58
2021/11/04 00:32:11;;;;;;;4.60;3.10;;;;;;;20.44;42.13;100290.41;5073095;28;20455;-59
2021/11/04 00:34:37;;;;;;;4.45;2.88;;;;;;;20.40;42.30;100283.75;5074008;28;20033;-60
2021/11/04 00:37:02;;;;;;;4.50;2.67;;;;;;;20.37;42.26;100282.25;5073700;28;20038;-59
2021/11/04 00:39:27;;;;;;;4.05;2.63;;;;;;;20.36;41.97;100282.41;5073499;28;20768;-59
2021/11/04 00:41:53;;;;;;;5.40;2.77;;;;;;;20.35;42.22;100286.03;5074216;28;20055;-58
2021/11/04 00:44:18;;;;;;;4.93;2.92;;;;;;;20.34;42.01;100282.53;5072916;28;20343;-59
2021/11/04 00:46:43;;;;;;;4.85;2.67;;;;;;;20.33;42.13;100282.69;5073442;28;20253;-58
2021/11/04 00:49:09;;;;;;;4.53;2.83;;;;;;;20.29;42.22;100288.28;5073526;28;20120;-57
2021/11/04 00:51:34;;;;;;;4.53;2.88;;;;;;;20.26;42.25;100290.41;5073673;28;20039;-60
2021/11/04 00:54:00;;;;;;;4.82;2.97;;;;;;;20.24;42.08;100289.75;5072712;28;20162;-58
2021/11/04 00:56:25;;;;;;;4.32;2.72;;;;;;;20.21;42.08;100284.75;5073407;28;20041;-58
2021/11/04 00:58:51;;;;;;;4.55;2.60;;;;;;;20.20;42.10;100285.72;5073604;28;20032;-57
2021/11/04 01:01:20;;;;;;;4.60;2.80;;;;;;;20.19;42.20;100289.38;5072458;28;20037;-58
2021/11/04 01:03:49;;;;;;;4.93;2.80;;;;;;;20.16;42.16;100289.69;5073580;28;20028;-59
2021/11/04 01:06:14;;;;;;;4.20;2.80;;;;;;;20.13;42.05;100289.97;5072348;28;20032;-59
2021/11/04 01:08:39;;;;;;;5.07;3.17;;;;;;;20.12;42.19;100294.41;5073701;28;20028;-58
2021/11/04 01:11:05;;;;;;;4.78;3.17;;;;;;;20.10;42.08;100299.84;5073203;28;20069;-59
2021/11/04 01:13:31;;;;;;;5.93;2.72;;;;;;;20.10;42.27;100305.16;5072718;28;20108;-58
2021/11/04 01:15:56;;;;;;;4.63;2.92;;;;;;;20.08;42.34;100304.47;5072989;28;20036;-57
2021/11/04 01:18:24;;;;;;;4.40;2.90;;;;;;;20.06;42.04;100303.81;5073265;28;20037;-59
2021/11/04 01:20:50;;;;;;;4.50;2.88;;;;;;;20.04;42.26;100294.34;5072739;28;20317;-59
2021/11/04 01:23:15;;;;;;;5.28;3.35;;;;;;;20.03;42.26;100296.16;5072988;28;20113;-59
2021/11/04 01:25:40;;;;;;;4.78;3.05;;;;;;;20.02;42.13;100288.38;5073349;28;20464;-60
2021/11/04 01:28:08;;;;;;;4.63;3.00;;;;;;;20.01;42.43;100286.72;5072107;28;20543;-59
2021/11/04 01:30:35;;;;;;;4.78;3.15;;;;;;;20.00;42.34;100285.88;5073279;28;20384;-59
2021/11/04 01:33:01;;;;;;;5.00;3.13;;;;;;;19.99;42.08;100273.63;5072671;28;20036;-58
2021/11/04 01:35:26;;;;;;;4.20;2.63;;;;;;;19.98;42.21;100265.84;5072455;28;20024;-57
2021/11/04 01:37:52;;;;;;;4.47;2.88;;;;;;;19.97;42.17;100277.44;5072660;28;20044;-59
2021/11/04 01:40:17;;;;;;;4.47;2.88;;;;;;;19.95;42.28;100274.94;5072649;28;20047;-58
2021/11/04 01:42:42;;;;;;;4.82;3.10;;;;;;;19.95;42.35;100274.94;5072203;28;20016;-58
2021/11/04 01:45:08;;;;;;;4.43;3.03;;;;;;;19.93;42.13;100277.72;5072477;28;20081;-60
2021/11/04 01:47:34;;;;;;;4.53;2.83;;;;;;;19.92;41.97;100276.06;5072771;28;20507;-58
2021/11/04 01:50:00;;;;;;;4.70;2.88;;;;;;;19.90;42.31;100270.09;5071350;28;20052;-58
2021/11/04 01:52:25;;;;;;;5.63;3.45;;;;;;;19.90;42.12;100271.88;5072760;28;20166;-58
2021/11/04 01:54:51;;;;;;;4.63;3.10;;;;;;;19.89;42.14;100270.25;5072683;28;20400;-59
2021/11/04 01:57:16;;;;;;;4.47;2.92;;;;;;;19.87;42.05;100267.75;5071733;28;20070;-59
2021/11/04 01:59:47;;;;;;;4.35;2.72;;;;;;;19.87;42.01;100274.84;5072692;28;20480;-58
2021/11/04 02:02:21;;;;;;;5.50;3.13;;;;;;;19.86;42.08;100278.47;5072250;28;20055;-58
2021/11/04 02:05:08;;;;;;;4.45;2.92;;;;;;;19.84;42.14;100277.81;5072327;28;20040;-58
2021/11/04 02:08:04;;;;;;;4.70;3.13;;;;;;;19.82;42.07;100277.94;5072869;28;20029;-58
2021/11/04 02:10:51;;;;;;;4.70;3.15;;;;;;;19.81;42.15;100284.22;5071898;28;20044;-58
2021/11/04 02:13:40;;;;;;;4.72;3.15;;;;;;;19.80;42.16;100279.88;5072382;28;20682;-59
2021/11/04 02:16:14;;;;;;;4.28;2.83;;;;;;;19.77;42.36;100284.66;5071877;28;20090;-58
2021/11/04 02:18:40;;;;;;;5.43;2.92;;;;;;;19.78;42.30;100289.78;5071497;28;20032;-59
2021/11/04 02:21:36;;;;;;;4.00;2.60;;;;;;;19.76;42.42;100283.81;5071309;28;20411;-59
2021/11/04 02:24:27;;;;;;;4.35;2.85;;;;;;;19.77;42.32;100274.06;5071306;28;20037;-58
2021/11/04 02:26:53;;;;;;;4.40;2.78;;;;;;;19.77;42.22;100290.75;5072023;28;20028;-59
2021/11/04 02:29:20;;;;;;;4.32;2.70;;;;;;;19.75;42.06;100282.13;5071604;28;20456;-58
2021/11/04 02:31:47;;;;;;;4.25;2.75;;;;;;;19.73;42.24;100295.50;5071270;28;20040;-59
2021/11/04 02:34:14;;;;;;;4.05;2.75;;;;;;;19.73;42.34;100289.38;5071723;28;20097;-62
2021/11/04 02:36:42;;;;;;;4.20;2.63;;;;;;;19.72;42.28;100293.00;5072132;28;20021;-58
2021/11/04 02:39:14;;;;;;;4.03;2.67;;;;;;;19.71;42.27;100293.97;5071178;28;20020;-58
2021/11/04 02:41:40;;;;;;;4.43;2.63;;;;;;;19.70;42.27;100295.78;5071863;28;20120;-58
2021/11/04 02:44:09;;;;;;;4.55;2.65;;;;;;;19.69;42.15;100294.13;5071496;28;20056;-58
2021/11/04 02:46:35;;;;;;;4.57;2.53;;;;;;;19.67;42.19;100289.97;5070749;28;20033;-58
2021/11/04 02:49:02;;;;;;;4.38;2.78;;;;;;;19.65;42.22;100290.13;5071583;28;20029;-59
2021/11/04 02:51:27;;;;;;;4.05;2.70;;;;;;;19.65;42.30;100287.47;5071810;28;20028;-58
2021/11/04 02:53:53;;;;;;;4.05;2.60;;;;;;;19.65;42.38;100281.38;5071101;28;20017;-58
2021/11/04 02:56:18;;;;;;;4.38;2.65;;;;;;;19.65;42.25;100294.59;5071120;28;20395;-59
2021/11/04 02:58:43;;;;;;;3.97;2.47;;;;;;;19.64;42.11;100298.19;5071041;28;20412;-58
2021/11/04 03:01:09;;;;;;;4.97;2.47;;;;;;;19.62;41.99;100298.34;5071747;28;20032;-58
2021/11/04 03:03:34;;;;;;;4.07;2.65;;;;;;;19.62;42.13;100300.16;5071713;28;20036;-58
2021/11/04 03:06:00;;;;;;;3.97;2.60;;;;;;;19.61;42.07;100304.59;5070864;28;20131;-59
2021/11/04 03:08:25;;;;;;;3.90;2.60;;;;;;;19.60;42.21;100304.75;5074241;28;20025;-58
2021/11/04 03:10:52;;;;;;;3.83;2.47;;;;;;;19.58;42.08;100307.53;5075637;28;20379;-59
2021/11/04 03:13:17;;;;;;;3.97;2.45;;;;;;;19.57;42.18;100303.25;5074609;28;20383;-59
2021/11/04 03:15:46;;;;;;;4.55;2.75;;;;;;;19.57;42.01;100308.53;5075837;28;20032;-59
2021/11/04 03:18:13;;;;;;;3.83;2.38;;;;;;;19.57;42.29;100313.81;5075216;28;20328;-57
2021/11/04 03:20:43;;;;;;;3.80;2.28;;;;;;;19.54;41.90;100309.66;5074883;28;20028;-59
2021/11/04 03:23:09;;;;;;;4.20;2.47;;;;;;;19.54;42.12;100314.94;5075068;28;20474;-58
2021/11/04 03:25:34;;;;;;;3.72;2.30;;;;;;;19.54;42.19;100325.50;5075314;28;20078;-58
2021/11/04 03:28:03;;;;;;;3.97;2.50;;;;;;;19.53;41.98;100331.75;5074433;28;20024;-58
2021/11/04 03:30:35;;;;;;;4.18;2.53;;;;;;;19.54;41.97;100333.44;5075388;28;20055;-58
2021/11/04 03:33:02;;;;;;;3.95;2.40;;;;;;;19.53;42.11;100326.47;5075091;28;20063;-59
2021/11/04 03:35:30;;;;;;;4.13;2.60;;;;;;;19.52;41.99;100334.56;5074447;28;20040;-58
2021/11/04 03:37:59;;;;;;;4.00;2.50;;;;;;;19.51;41.91;100339.00;5074930;28;20031;-59
2021/11/04 03:40:29;;;;;;;4.20;2.47;;;;;;;19.51;42.03;100346.13;5075239;28;20085;-58
2021/11/04 03:42:55;;;;;;;4.00;2.60;;;;;;;19.49;42.31;100335.69;5074557;28;20052;-58
2021/11/04 03:45:21;;;;;;;3.92;2.58;;;;;;;19.49;42.07;100337.50;5074934;28;20028;-59
2021/11/04 03:47:47;;;;;;;4.13;2.38;;;;;;;19.48;41.85;100349.88;5075210;28;20028;-59
2021/11/04 03:50:13;;;;;;;4.40;2.55;;;;;;;19.47;42.17;100342.94;5073997;28;20476;-59
2021/11/04 03:52:41;;;;;;;3.67;2.33;;;;;;;19.47;42.26;100344.72;5074782;28;20021;-58
2021/11/04 03:55:08;;;;;;;4.65;2.50;;;;;;;19.52;41.97;100347.78;5073765;28;20052;-59
2021/11/04 03:57:35;;;;;;;4.20;2.72;;;;;;;19.56;42.20;100344.69;5074916;28;20375;-59
2021/11/04 04:00:00;;;;;;;3.72;2.13;;;;;;;19.62;42.09;100345.09;5074462;28;20494;-58
2021/11/04 04:02:25;;;;;;;3.90;2.38;;;;;;;19.68;41.97;100349.81;5072604;28;20048;-58
2021/11/04 04:04:52;;;;;;;3.83;2.43;;;;;;;19.70;41.79;100351.31;5074731;28;20075;-59
2021/11/04 04:07:18;;;;;;;3.83;2.42;;;;;;;19.74;41.72;100341.25;5074186;28;20323;-58
2021/11/04 04:09:43;;;;;;;3.60;2.20;;;;;;;19.75;41.58;100346.41;5074101;28;20028;-58
2021/11/04 04:12:08;;;;;;;4.47;2.55;;;;;;;19.78;41.44;100353.25;5074386;28;20422;-59
2021/11/04 04:14:34;;;;;;;3.45;2.17;;;;;;;19.78;41.63;100353.25;5074781;28;20030;-59
2021/11/04 04:16:59;;;;;;;4.28;2.47;;;;;;;19.80;41.44;100363.69;5073414;28;20036;-59
2021/11/04 04:19:24;;;;;;;3.87;2.17;;;;;;;19.81;41.35;100365.34;5073047;28;20029;-59
2021/11/04 04:21:50;;;;;;;3.55;2.25;;;;;;;19.74;41.31;100351.84;5074304;28;20289;-59
2021/11/04 04:24:15;;;;;;;4.05;2.30;;;;;;;19.81;41.22;100360.88;5073460;28;20471;-59
2021/11/04 04:26:40;;;;;;;3.58;2.22;;;;;;;19.79;41.35;100357.56;5074019;28;20036;-58
2021/11/04 04:29:05;;;;;;;3.47;2.15;;;;;;;19.80;41.16;100359.22;5074113;28;20129;-60
2021/11/04 04:31:31;;;;;;;4.30;2.53;;;;;;;19.78;41.29;100357.72;5073806;28;20029;-59
2021/11/04 04:33:59;;;;;;;4.05;2.30;;;;;;;19.78;41.19;100360.34;5073958;28;20464;-58
2021/11/04 04:36:24;;;;;;;3.83;2.13;;;;;;;19.77;41.28;100363.97;5074051;28;20028;-59
2021/11/04 04:38:49;;;;;;;4.13;2.43;;;;;;;19.76;41.19;100360.50;5073750;28;20027;-58
2021/11/04 04:41:15;;;;;;;3.78;2.38;;;;;;;19.75;41.37;100356.97;5073849;28;20281;-58
2021/11/04 04:43:40;;;;;;;3.90;2.10;;;;;;;19.74;41.30;100360.63;5073987;28;20027;-59
2021/11/04 04:46:05;;;;;;;4.00;2.23;;;;;;;19.73;41.44;100355.47;5072768;28;20028;-59
2021/11/04 04:48:30;;;;;;;3.47;2.10;;;;;;;19.72;41.21;100357.25;5073799;28;20316;-58
2021/11/04 04:50:56;;;;;;;3.97;2.35;;;;;;;19.75;41.43;100349.03;5073738;28;20074;-59
2021/11/04 04:53:21;;;;;;;3.72;2.20;;;;;;;19.78;41.41;100350.59;5073244;28;20044;-58
2021/11/04 04:55:47;;;;;;;4.47;2.67;;;;;;;19.81;41.29;100355.59;5073640;28;20037;-59
2021/11/04 04:58:12;;;;;;;4.20;2.60;;;;;;;19.82;41.33;100362.56;5072684;28;20552;-59
2021/11/04 05:00:37;;;;;;;3.72;2.30;;;;;;;19.83;41.15;100366.03;5073694;28;20041;-59
2021/11/04 05:03:06;;;;;;;4.20;2.60;;;;;;;19.83;41.15;100356.28;5073428;28;20033;-58
2021/11/04 05:05:31;;;;;;;4.10;2.60;;;;;;;19.84;40.86;100359.78;5072844;28;20086;-58
2021/11/04 05:07:57;;;;;;;4.13;2.60;;;;;;;19.84;41.01;100347.38;5073110;28;20017;-59
2021/11/04 05:10:22;;;;;;;5.05;2.55;;;;;;;19.83;41.12;100340.41;5073702;28;20024;-57
2021/11/04 05:12:47;;;;;;;3.97;2.33;;;;;;;19.84;40.68;100347.38;5072981;28;20384;-59
2021/11/04 05:15:13;;;;;;;4.03;2.00;;;;;;;19.85;40.93;100345.56;5073182;28;20261;-58
2021/11/04 05:17:38;;;;;;;3.83;2.28;;;;;;;19.83;40.62;100348.34;5073260;28;20032;-58
2021/11/04 05:20:05;;;;;;;4.00;2.17;;;;;;;19.83;40.85;100348.34;5072758;28;20040;-58
2021/11/04 05:22:31;;;;;;;3.90;2.05;;;;;;;19.82;40.79;100344.06;5072951;28;20036;-59
2021/11/04 05:24:57;;;;;;;3.80;2.22;;;;;;;19.82;40.71;100349.34;5073036;28;20380;-58
2021/11/04 05:27:22;;;;;;;4.20;2.40;;;;;;;19.83;40.87;100360.75;5072522;28;20023;-60
2021/11/04 05:29:48;;;;;;;3.63;2.22;;;;;;;19.80;40.65;100363.69;5072923;28;20468;-58
2021/11/04 05:32:13;;;;;;;4.20;2.40;;;;;;;19.78;40.49;100366.47;5071245;28;20044;-59
2021/11/04 05:34:41;;;;;;;3.70;2.30;;;;;;;19.77;40.81;100367.44;5072292;28;20017;-59
2021/11/04 05:37:08;;;;;;;4.18;2.05;;;;;;;19.77;40.92;100367.44;5072765;28;20043;-58
2021/11/04 05:39:40;;;;;;;3.85;2.05;;;;;;;19.75;40.70;100367.53;5073058;28;20100;-58
2021/11/04 05:42:08;;;;;;;4.45;2.50;;;;;;;19.73;40.89;100366.88;5071053;28;20052;-57
2021/11/04 05:44:35;;;;;;;4.13;2.50;;;;;;;19.74;40.90;100367.69;5072836;28;20116;-58
2021/11/04 05:47:01;;;;;;;5.50;2.40;;;;;;;19.78;40.73;100376.22;5072426;28;20028;-59
2021/11/04 05:49:27;;;;;;;3.75;2.30;;;;;;;19.80;40.82;100379.53;5071753;28;20033;-58
2021/11/04 05:51:52;;;;;;;4.03;2.17;;;;;;;19.81;40.68;100368.00;5072747;28;20541;-58
2021/11/04 05:54:17;;;;;;;4.63;2.28;;;;;;;19.82;41.06;100375.78;5072313;28;20292;-61
2021/11/04 05:56:42;;;;;;;4.15;2.45;;;;;;;19.82;40.66;100370.50;5071797;28;20021;-59
2021/11/04 05:59:11;;;;;;;3.88;2.22;;;;;;;19.82;40.80;100375.78;5072295;28;20501;-59
2021/11/04 06:01:36;;;;;;;3.58;2.13;;;;;;;19.83;40.38;100380.06;5071532;28;20024;-58
2021/11/04 06:04:02;;;;;;;4.47;2.10;;;;;;;19.83;40.42;100371.31;5072179;28;20040;-58
2021/11/04 06:06:28;;;;;;;3.60;2.10;;;;;;;19.83;40.38;100381.91;5072318;28;20042;-58
2021/11/04 06:08:56;;;;;;;3.60;2.15;;;;;;;19.83;40.46;100380.06;5071692;28;20111;-58
2021/11/04 06:11:21;;;;;;;3.10;1.70;;;;;;;19.82;40.47;100388.16;5072183;28;20052;-59
2021/11/04 06:13:46;;;;;;;3.85;2.22;;;;;;;19.80;40.23;100385.66;5072506;28;20090;-59
2021/11/04 06:16:13;;;;;;;3.60;2.03;;;;;;;19.79;40.42;100389.28;5071334;28;20021;-59
2021/11/04 06:18:42;;;;;;;3.80;2.30;;;;;;;19.80;40.56;100388.28;5072163;28;20059;-59
2021/11/04 06:21:08;;;;;;;4.40;2.10;;;;;;;19.85;40.65;100391.34;5072062;28;20049;-58
2021/11/04 06:23:34;;;;;;;3.28;1.83;;;;;;;19.91;41.08;100385.44;5071620;28;20020;-59
2021/11/04 06:25:59;;;;;;;3.47;2.00;;;;;;;20.01;41.30;100397.78;5071775;28;20074;-58
2021/11/04 06:28:24;;;;;;;3.30;1.75;;;;;;;20.08;42.04;100412.13;5072169;28;20024;-59
2021/11/04 06:30:49;;;;;;;3.40;2.03;;;;;;;20.11;41.98;100407.34;5071188;28;20060;-58
2021/11/04 06:33:18;;;;;;;3.23;1.77;;;;;;;20.16;42.22;100404.25;5071800;28;20060;-59
2021/11/04 06:35:43;;;;;;;3.25;1.70;;;;;;;20.21;41.87;100412.56;5072352;28;20327;-59
2021/11/04 06:38:09;;;;;;;2.92;1.58;;;;;;;20.27;42.09;100413.81;5070929;28;20020;-58
2021/11/04 06:40:35;;;;;;;2.92;1.50;;;;;;;20.30;41.95;100419.63;5071964;28;20043;-60
2021/11/04 06:43:00;;;;;;;2.50;1.48;;;;;;;20.34;41.92;100422.81;5073496;28;20024;-59
2021/11/04 06:45:25;;;;;;;2.83;1.63;;;;;;;20.38;41.76;100426.00;5075389;28;20036;-59
2021/11/04 06:47:59;;;;;;;3.15;1.70;;;;;;;20.40;41.77;100426.69;5076124;28;20177;-58
2021/11/04 06:50:28;;;;;;;3.15;1.50;;;;;;;20.45;41.66;100419.09;5076276;28;20100;-58
2021/11/04 06:53:11;;;;;;;3.33;1.88;;;;;;;20.45;40.72;100419.09;5075345;28;20052;-59
2021/11/04 06:55:42;;;;;;;2.92;1.75;;;;;;;20.49;41.27;100428.44;5075898;28;20041;-59
2021/11/04 06:58:14;;;;;;;2.65;1.50;;;;;;;20.54;41.18;100431.44;5074939;28;20158;-59
2021/11/04 07:00:44;;;;;;;3.28;1.73;;;;;;;20.58;40.74;100432.78;5076089;28;20107;-61
2021/11/04 07:03:27;;;;;;;2.70;1.45;;;;;;;20.63;40.93;100437.66;5075772;28;20482;-61
2021/11/04 07:08:24;;;;;;;3.10;1.50;;;;;;;20.63;40.88;100435.00;5076008;28;20041;-61
2021/11/04 07:10:58;;;;;;;3.33;1.60;;;;;;;20.63;41.26;100435.84;5076030;28;20054;-59
2021/11/04 07:13:26;;;;;;;3.42;1.85;;;;;;;20.65;40.65;100436.56;5075105;28;20029;-59
2021/11/04 07:16:03;;;;;;;3.10;1.58;;;;;;;20.70;40.82;100446.69;5075588;28;20023;-60
2021/11/04 07:18:29;;;;;;;3.78;1.80;;;;;;;20.72;41.01;100438.59;5075518;28;20089;-60
2021/11/04 07:21:33;;;;;;;2.80;1.48;;;;;;;20.72;41.15;100441.25;5074771;28;20127;-58
2021/11/04 07:24:01;;;;;;;3.05;1.63;;;;;;;20.68;41.08;100446.03;5062719;28;20033;-61
2021/11/04 07:26:37;;;;;;;3.25;1.58;;;;;;;20.71;41.30;100458.09;5074983;28;20145;-60
2021/11/04 07:29:04;;;;;;;2.33;1.40;;;;;;;20.74;41.04;100458.63;5075299;28;20021;-61
2021/11/04 07:31:34;;;;;;;3.20;1.50;;;;;;;20.80;40.91;100457.19;5075363;28;20064;-60
2021/11/04 07:34:02;;;;;;;3.60;1.42;;;;;;;20.85;41.00;100457.56;5074334;28;20467;-61
2021/11/04 07:36:29;;;;;;;3.15;1.40;;;;;;;20.83;41.08;100454.25;5075350;28;20491;-61
2021/11/04 07:39:03;;;;;;;3.53;1.40;;;;;;;20.79;41.16;100458.19;5075114;28;20035;-60
2021/11/04 07:41:30;;;;;;;2.80;1.30;;;;;;;20.78;41.30;100473.25;5074637;28;20028;-60
2021/11/04 07:43:57;;;;;;;3.78;1.80;;;;;;;20.81;41.29;100480.06;5075048;28;20056;-60
2021/11/04 07:46:23;;;;;;;2.42;1.30;;;;;;;20.89;41.01;100479.31;5075300;28;20116;-62
2021/11/04 07:48:51;;;;;;;2.17;1.25;;;;;;;20.94;41.01;100477.84;5074630;28;20531;-61
2021/11/04 07:51:16;;;;;;;2.78;1.40;;;;;;;20.99;40.81;100467.63;5074690;28;20033;-61
2021/11/04 07:53:42;;;;;;;3.80;1.60;;;;;;;21.05;40.64;100465.38;5074752;28;20302;-60
2021/11/04 07:56:09;;;;;;;2.70;1.42;;;;;;;21.07;40.86;100466.06;5073645;28;20119;-60
2021/11/04 07:58:35;;;;;;;2.50;1.35;;;;;;;21.04;41.03;100469.81;5074823;28;20028;-61
2021/11/04 08:01:00;;;;;;;4.03;1.40;;;;;;;21.05;41.02;100471.50;5074514;28;20456;-61
2021/11/04 08:03:25;;;;;;;2.47;1.42;;;;;;;21.05;40.75;100468.84;5074340;28;20111;-60
2021/11/04 08:05:51;;;;;;;2.75;1.40;;;;;;;21.08;40.83;100459.75;5074959;28;20016;-60
2021/11/04 08:08:16;;;;;;;3.22;1.30;;;;;;;21.12;40.75;100458.47;5073482;28;20101;-60
2021/11/04 08:10:41;;;;;;;2.72;1.45;;;;;;;21.13;40.54;100463.63;5074811;28;20036;-59
2021/11/04 08:13:08;;;;;;;2.78;1.40;;;;;;;21.13;40.51;100468.09;5074272;28;20147;-59
2021/11/04 08:15:36;;;;;;;2.63;1.50;;;;;;;21.14;40.53;100467.94;5074031;28;20078;-59
2021/11/04 08:18:02;;;;;;;3.53;1.50;;;;;;;21.12;40.66;100475.19;5074071;28;20035;-60
2021/11/04 08:20:29;;;;;;;2.78;1.20;;;;;;;21.14;40.67;100473.25;5074612;28;20107;-61
2021/11/04 08:22:54;;;;;;;3.15;1.40;;;;;;;21.15;40.53;100477.53;5073853;28;20029;-61
2021/11/04 08:25:22;;;;;;;3.90;2.00;;;;;;;21.08;40.43;100478.28;5074855;28;20027;-61
2021/11/04 08:27:48;;;;;;;3.22;1.70;;;;;;;21.04;39.98;100469.00;5075260;28;20033;-60
2021/11/04 08:30:16;;;;;;;3.13;1.63;;;;;;;21.04;40.32;100479.59;5075273;28;20024;-61
2021/11/04 08:32:44;;;;;;;2.80;1.58;;;;;;;21.09;40.13;100477.31;5075545;28;20037;-63
2021/11/04 08:35:10;;;;;;;3.47;1.67;;;;;;;21.19;39.88;100478.09;5075795;28;20399;-62
2021/11/04 08:37:41;;;;;;;3.25;1.60;;;;;;;21.25;39.61;100473.97;5076867;28;20476;-62
2021/11/04 08:40:07;;;;;;;3.47;1.63;;;;;;;21.31;39.63;100476.81;5075603;28;20497;-62
2021/11/04 08:42:32;;;;;;;2.72;1.50;;;;;;;21.34;39.55;100479.16;5076510;28;20044;-61
2021/11/04 08:44:59;;;;;;;3.47;1.70;;;;;;;21.37;39.68;100480.69;5074196;28;20047;-62
2021/11/04 08:47:26;;;;;;;2.17;1.27;;;;;;;21.39;39.24;100473.41;5074364;28;20124;-61
2021/11/04 08:49:51;;;;;;;2.72;1.55;;;;;;;21.43;39.33;100477.41;5075115;28;20060;-61
2021/11/04 08:52:16;;;;;;;3.15;1.70;;;;;;;21.43;39.49;100466.81;5073127;28;20059;-61
2021/11/04 08:54:42;;;;;;;3.35;1.63;;;;;;;21.44;39.32;100468.47;5073658;28;20044;-61
2021/11/04 08:57:08;;;;;;;3.87;1.40;;;;;;;21.48;39.44;100469.00;5074529;28;20361;-60
2021/11/04 08:59:34;;;;;;;3.40;1.92;;;;;;;21.51;39.43;100471.38;5073835;28;20289;-60
2021/11/04 09:02:02;;;;;;;2.85;1.50;;;;;;;21.53;39.26;100480.00;5073622;28;20020;-61
2021/11/04 09:04:28;;;;;;;3.25;1.50;;;;;;;21.56;39.21;100485.00;5073797;28;20025;-61
2021/11/04 09:06:54;;;;;;;3.03;1.70;;;;;;;21.56;38.92;100485.81;5073616;28;20032;-60
2021/11/04 09:09:19;;;;;;;4.40;1.55;;;;;;;21.56;38.99;100485.00;5073716;28;20059;-60
2021/11/04 09:11:48;;;;;;;4.53;3.15;;;;;;;21.56;39.04;100493.78;5073426;28;20487;-60
2021/11/04 09:14:13;;;;;;;3.22;1.85;;;;;;;21.55;39.03;100502.72;5073439;28;20391;-61
2021/11/04 09:16:40;;;;;;;2.90;1.77;;;;;;;21.56;38.94;100514.16;5074885;28;20024;-60
2021/11/04 09:19:09;;;;;;;3.47;1.63;;;;;;;21.58;38.67;100520.13;5073095;28;20032;-60
2021/11/04 09:21:38;;;;;;;2.58;1.30;;;;;;;21.56;38.94;100517.63;5074962;28;20480;-60
2021/11/04 09:24:04;;;;;;;3.10;1.67;;;;;;;21.55;38.64;100512.47;5073567;28;20334;-61
2021/11/04 09:26:29;;;;;;;3.22;1.77;;;;;;;21.52;39.09;100518.94;5073144;28;20017;-60
2021/11/04 09:28:55;;;;;;;4.13;1.80;;;;;;;21.53;39.20;100517.13;5073949;28;20043;-60
2021/11/04 09:31:20;;;;;;;3.50;1.53;;;;;;;21.53;39.41;100514.47;5073507;28;20103;-62
2021/11/04 09:33:46;;;;;;;3.30;1.63;;;;;;;21.55;39.16;100515.13;5071912;28;20274;-61
2021/11/04 09:36:11;;;;;;;4.72;1.60;;;;;;;21.56;39.14;100514.97;5073370;28;20044;-63
2021/11/04 09:38:37;;;;;;;4.07;1.65;;;;;;;21.56;39.27;100517.63;5073983;28;20021;-62
2021/11/04 09:41:05;;;;;;;5.32;1.85;;;;;;;21.58;39.26;100516.66;5072511;28;20021;-61
2021/11/04 09:43:32;;;;;;;3.00;1.40;;;;;;;21.53;39.46;100512.63;5073601;28;20039;-62
2021/11/04 09:46:00;;;;;;;2.83;1.60;;;;;;;21.52;39.41;100512.78;5073386;28;20024;-64
2021/11/04 09:48:28;;;;;;;4.50;1.80;;;;;;;21.51;39.62;100521.75;5072935;28;20032;-62
2021/11/04 09:50:54;;;;;;;3.80;1.80;;;;;;;21.46;39.85;100518.69;5073221;28;20418;-64
2021/11/04 09:53:21;;;;;;;4.38;2.08;;;;;;;21.44;39.76;100528.63;5073101;28;20025;-64
2021/11/04 09:55:47;;;;;;;3.47;1.70;;;;;;;21.42;40.13;100531.41;5072573;28;20468;-62
2021/11/04 09:58:14;;;;;;;3.38;1.80;;;;;;;21.44;40.36;100533.91;5073915;28;20044;-60
2021/11/04 10:00:41;;;;;;;2.88;1.55;;;;;;;21.46;40.25;100539.88;5072184;28;20017;-61
2021/11/04 10:03:10;;;;;;;3.13;1.67;;;;;;;21.48;40.21;100548.53;5073043;28;20395;-60
2021/11/04 10:05:45;;;;;;;2.95;1.50;;;;;;;21.51;40.21;100550.91;5073363;28;20028;-60
2021/11/04 10:08:14;;;;;;;3.22;1.80;;;;;;;21.51;40.24;100548.25;5071690;28;20072;-60
2021/11/04 10:10:43;;;;;;;2.85;1.42;;;;;;;21.50;40.27;100551.91;5072988;28;20082;-62
2021/11/04 10:13:10;;;;;;;3.72;2.00;;;;;;;21.51;40.17;100551.75;5074907;28;20020;-62
2021/11/04 10:15:38;;;;;;;3.80;1.70;;;;;;;21.53;40.26;100554.25;5071858;28;20115;-61
2021/11/04 10:18:14;;;;;;;4.80;1.60;;;;;;;21.55;40.30;100553.09;5072265;28;20017;-61
2021/11/04 10:20:41;;;;;;;5.80;1.90;;;;;;;21.58;40.41;100554.59;5073438;28;20028;-61
2021/11/04 10:23:11;;;;;;;3.53;1.60;;;;;;;21.61;40.11;100550.81;5072708;28;20039;-61
2021/11/04 10:25:36;;;;;;;4.43;1.92;;;;;;;21.61;40.36;100550.81;5073248;28;20103;-61
2021/11/04 10:28:25;;;;;;;3.83;2.00;;;;;;;21.62;40.25;100560.41;5072492;28;20056;-60
2021/11/04 10:30:50;;;;;;;3.72;1.98;;;;;;;21.63;40.09;100560.25;5072160;28;20105;-61
2021/11/04 10:33:18;;;;;;;3.50;2.00;;;;;;;21.65;40.12;100563.63;5072781;28;20044;-61
2021/11/04 10:35:50;;;;;;;4.18;1.90;;;;;;;21.61;40.12;100564.91;5072664;28;20024;-60
2021/11/04 10:38:18;;;;;;;4.57;2.65;;;;;;;21.60;40.16;100565.06;5072053;28;20092;-61
2021/11/04 10:40:44;;;;;;;4.13;2.15;;;;;;;21.58;40.23;100561.72;5072603;28;20081;-60
2021/11/04 10:43:09;;;;;;;4.20;2.30;;;;;;;21.59;40.28;100563.38;5073274;28;20105;-60
2021/11/04 10:45:34;;;;;;;4.45;2.13;;;;;;;21.59;40.08;100563.38;5075756;28;20100;-60
2021/11/04 10:48:19;;;;;;;4.22;2.28;;;;;;;21.59;40.27;100560.72;5074339;28;20447;-59
2021/11/04 10:50:46;;;;;;;4.32;1.80;;;;;;;21.60;40.11;100554.44;5073842;28;20120;-62
2021/11/04 10:53:15;;;;;;;3.78;1.88;;;;;;;21.58;40.22;100551.94;5075120;28;20043;-61
2021/11/04 10:55:45;;;;;;;4.20;2.17;;;;;;;21.58;40.27;100553.78;5073120;28;20049;-61
2021/11/04 10:58:31;;;;;;;4.25;2.10;;;;;;;21.60;40.35;100551.78;5073182;28;20033;-61
2021/11/04 11:00:57;;;;;;;4.57;2.47;;;;;;;21.61;40.17;100550.81;5073694;28;20021;-62
2021/11/04 11:03:24;;;;;;;4.38;2.40;;;;;;;21.63;40.21;100552.31;5072305;28;20028;-60
2021/11/04 11:05:50;;;;;;;4.30;2.30;;;;;;;21.63;39.92;100548.84;5071438;28;20032;-61
2021/11/04 11:08:16;;;;;;;3.85;2.15;;;;;;;21.62;39.94;100544.50;5072450;28;20470;-61
2021/11/04 11:10:42;;;;;;;4.88;2.10;;;;;;;21.63;40.18;100548.84;5072796;28;20103;-62
2021/11/04 11:13:09;;;;;;;4.50;2.47;;;;;;;21.62;40.09;100555.97;5072682;28;20422;-60
2021/11/04 11:15:37;;;;;;;4.50;2.15;;;;;;;21.61;40.09;100559.59;5073071;28;20139;-61
2021/11/04 11:18:05;;;;;;;5.05;2.58;;;;;;;21.59;40.41;100561.59;5071252;28;20104;-61
2021/11/04 11:20:32;;;;;;;6.30;2.97;;;;;;;21.59;39.89;100558.06;5072442;28;20036;-62
2021/11/04 11:22:59;;;;;;;4.28;2.67;;;;;;;21.57;40.22;100563.56;5071878;28;20103;-61
2021/11/04 11:25:25;;;;;;;5.13;2.53;;;;;;;21.56;40.29;100560.06;5071411;28;20031;-61
2021/11/04 11:27:51;;;;;;;4.35;2.40;;;;;;;21.53;40.38;100560.38;5071982;28;20037;-63